createdAt,value
2022-11-08T03:20:33.221Z,3.38
2022-11-08T03:23:01.708Z,2.40
2022-11-08T03:25:28.607Z,3.47
2022-11-08T03:27:55.314Z,2.97
2022-11-08T03:32:49.910Z,3.35
2022-11-08T03:35:17.099Z,3.88
2022-11-08T03:37:53.831Z,3.30
2022-11-08T03:40:20.896Z,3.55
2022-11-08T03:42:47.792Z,4.25
2022-11-08T03:45:15.189Z,2.92
2022-11-08T03:47:46.704Z,2.92
2022-11-08T03:50:15.128Z,3.33
2022-11-08T03:52:47.511Z,3.92
2022-11-08T03:55:14.791Z,4.47
2022-11-08T03:57:42.075Z,3.50
2022-11-08T04:00:10.601Z,3.95
2022-11-08T04:02:37.343Z,4.10
2022-11-08T04:05:04.887Z,3.20
2022-11-08T04:07:31.650Z,3.85
2022-11-08T04:09:58.104Z,2.92
2022-11-08T04:12:43.225Z,3.10
2022-11-08T04:15:16.928Z,3.00
2022-11-08T04:18:06.743Z,5.60
2022-11-08T04:20:52.195Z,3.08
2022-11-08T04:23:18.879Z,3.83
2022-11-08T04:28:12.051Z,3.17
2022-11-08T04:30:38.475Z,4.15
2022-11-08T04:33:05.815Z,3.22
2022-11-08T04:35:32.768Z,3.38
2022-11-08T04:38:01.052Z,4.85
2022-11-08T04:40:29.826Z,2.95
2022-11-08T04:42:56.422Z,3.00
2022-11-08T04:47:49.316Z,3.28
2022-11-08T04:50:16.394Z,3.10
2022-11-08T04:52:43.076Z,8.73
2022-11-08T04:57:36.116Z,6.18
2022-11-08T05:00:02.628Z,4.55
2022-11-08T05:02:29.162Z,3.47
2022-11-08T05:07:22.073Z,4.55
2022-11-08T05:09:48.584Z,3.25
2022-11-08T05:12:15.020Z,3.15
2022-11-08T05:14:41.485Z,3.25
2022-11-08T05:17:07.921Z,3.58
2022-11-08T05:19:53.170Z,5.05
2022-11-08T05:22:38.141Z,5.55
2022-11-08T05:25:04.938Z,5.50
2022-11-08T05:27:31.409Z,4.72
2022-11-08T05:29:58.066Z,3.60
2022-11-08T05:34:50.955Z,3.80
2022-11-08T05:37:17.418Z,4.63
2022-11-08T05:39:43.839Z,3.78
2022-11-08T05:42:10.919Z,3.40
2022-11-08T05:44:37.345Z,6.20
2022-11-08T05:47:03.862Z,3.35
2022-11-08T05:49:30.278Z,4.32
2022-11-08T05:51:56.842Z,4.53
2022-11-08T05:54:23.309Z,4.03
2022-11-08T05:56:50.453Z,3.65
2022-11-08T05:59:16.864Z,3.42
2022-11-08T06:01:43.361Z,3.42
2022-11-08T06:04:09.868Z,4.75
2022-11-08T06:06:36.333Z,5.25
2022-11-08T06:09:02.789Z,3.63
2022-11-08T06:11:29.305Z,4.05
2022-11-08T06:13:56.279Z,3.65
2022-11-08T06:16:23.948Z,6.72
2022-11-08T06:18:50.553Z,4.80
2022-11-08T06:23:45.133Z,4.10
2022-11-08T06:26:11.648Z,5.00
2022-11-08T06:28:38.132Z,5.43
2022-11-08T06:33:32.124Z,5.40
2022-11-08T06:35:58.955Z,3.53
2022-11-08T06:38:25.443Z,8.43
2022-11-08T06:40:51.975Z,4.13
2022-11-08T06:43:20.264Z,4.22
2022-11-08T06:45:47.410Z,3.35
2022-11-08T06:48:14.086Z,3.03
2022-11-08T06:53:11.642Z,3.47
2022-11-08T06:55:38.066Z,3.55
2022-11-08T06:58:05.105Z,3.90
2022-11-08T07:00:32.308Z,3.67
2022-11-08T07:03:01.060Z,3.10
2022-11-08T07:05:29.047Z,3.40
2022-11-08T07:07:57.836Z,2.92
2022-11-08T07:10:26.667Z,3.72
2022-11-08T07:13:19.721Z,4.15
2022-11-08T07:15:48.047Z,2.80
2022-11-08T07:18:16.226Z,3.13
2022-11-08T07:20:43.072Z,5.20
2022-11-08T07:23:11.174Z,3.22
2022-11-08T07:25:37.843Z,3.55
2022-11-08T07:30:33.672Z,2.80
2022-11-08T07:33:00.111Z,5.25
2022-11-08T07:35:27.840Z,3.97
2022-11-08T07:37:55.575Z,3.45
2022-11-08T07:40:22.544Z,2.72
2022-11-08T07:43:10.730Z,4.63
2022-11-08T07:45:35.443Z,3.90
2022-11-08T07:48:10.609Z,5.47
2022-11-08T07:50:38.104Z,3.63
2022-11-08T07:53:04.583Z,2.42
2022-11-08T07:55:31.053Z,2.83
2022-11-08T07:58:03.993Z,3.28
2022-11-08T08:00:31.454Z,2.83
2022-11-08T08:03:01.504Z,2.60
2022-11-08T08:05:29.421Z,3.65
2022-11-08T08:08:00.175Z,2.80
2022-11-08T08:10:28.058Z,3.88
2022-11-08T08:12:55.936Z,2.42
2022-11-08T08:15:22.873Z,3.65
2022-11-08T08:17:49.561Z,3.95
2022-11-08T08:22:47.104Z,2.80
2022-11-08T08:25:14.277Z,3.30
2022-11-08T08:27:40.717Z,2.83
2022-11-08T08:30:07.707Z,3.10
2022-11-08T08:32:34.479Z,4.57
2022-11-08T08:35:00.898Z,3.33
2022-11-08T08:37:27.320Z,2.47
2022-11-08T08:39:53.790Z,2.90
2022-11-08T08:42:20.254Z,2.75
2022-11-08T08:44:46.683Z,2.65
2022-11-08T08:47:13.122Z,2.53
2022-11-08T08:49:39.562Z,2.63
2022-11-08T08:52:05.995Z,4.90
2022-11-08T08:54:32.442Z,4.30
2022-11-08T08:56:58.915Z,2.47
2022-11-08T09:02:14.711Z,2.55
2022-11-08T09:04:41.242Z,3.58
2022-11-08T09:07:07.967Z,2.10
2022-11-08T09:09:34.565Z,2.50
2022-11-08T09:14:28.172Z,4.35
2022-11-08T09:16:54.741Z,2.75
2022-11-08T09:21:47.621Z,2.92
2022-11-08T09:26:40.446Z,2.65
2022-11-08T09:29:06.932Z,2.10
2022-11-08T09:31:33.384Z,3.08
2022-11-08T09:33:59.846Z,3.90
2022-11-08T09:38:52.700Z,2.15
2022-11-08T09:41:19.125Z,3.17
2022-11-08T09:44:03.155Z,3.42
2022-11-08T09:46:49.922Z,3.53
2022-11-08T09:49:36.008Z,3.20
2022-11-08T09:52:05.204Z,3.30
2022-11-08T09:54:42.080Z,3.17
2022-11-08T09:57:34.663Z,2.45
2022-11-08T10:00:05.945Z,2.97
2022-11-08T10:02:36.188Z,3.40
2022-11-08T10:05:05.577Z,2.00
2022-11-08T10:07:57.618Z,3.13
2022-11-08T10:10:37.876Z,2.90
2022-11-08T10:13:17.685Z,4.25
2022-11-08T10:15:44.334Z,2.38
2022-11-08T10:18:23.112Z,2.38
2022-11-08T10:21:18.982Z,2.20
2022-11-08T10:23:54.709Z,2.20
2022-11-08T10:26:27.341Z,2.20
2022-11-08T10:29:03.181Z,3.08
2022-11-08T10:31:34.006Z,1.90
2022-11-08T10:34:03.207Z,2.85
2022-11-08T10:36:42.048Z,2.22
2022-11-08T10:39:11.378Z,2.30
2022-11-08T10:41:47.317Z,2.28
2022-11-08T10:44:17.344Z,1.98
2022-11-08T10:47:00.213Z,3.33
2022-11-08T10:49:30.645Z,3.05
2022-11-08T10:51:59.753Z,2.47
2022-11-08T10:54:55.396Z,1.90
2022-11-08T10:57:26.257Z,4.68
2022-11-08T10:59:53.636Z,2.75
2022-11-08T11:02:30.012Z,1.80
2022-11-08T11:05:16.382Z,2.53
2022-11-08T11:07:59.237Z,2.55
2022-11-08T11:10:35.439Z,2.95
2022-11-08T11:13:10.049Z,1.80
2022-11-08T11:15:38.364Z,2.85
2022-11-08T11:18:17.732Z,2.20
2022-11-08T11:21:00.556Z,1.80
2022-11-08T11:23:48.213Z,2.08
2022-11-08T11:29:05.408Z,4.30
2022-11-08T11:31:43.605Z,1.70
2022-11-08T11:34:18.870Z,3.50
2022-11-08T11:37:05.621Z,1.90
2022-11-08T11:39:39.365Z,1.83
2022-11-08T11:42:47.746Z,1.80
2022-11-08T11:45:15.664Z,3.00
2022-11-08T11:47:54.350Z,2.40
2022-11-08T11:50:28.937Z,2.45
2022-11-08T11:53:00.554Z,1.88
2022-11-08T11:55:45.602Z,1.95
2022-11-08T11:58:18.347Z,2.13
2022-11-08T12:00:55.826Z,3.85
2022-11-08T12:03:51.026Z,2.08
2022-11-08T12:06:30.557Z,2.83
2022-11-08T12:09:28.223Z,2.00
2022-11-08T12:12:20.510Z,3.90
2022-11-08T12:15:23.980Z,1.73
2022-11-08T12:18:03.323Z,2.00
2022-11-08T12:20:39.246Z,2.20
2022-11-08T12:23:20.054Z,1.92
2022-11-08T12:26:04.458Z,2.58
2022-11-08T12:28:36.413Z,2.05
2022-11-08T12:31:17.938Z,2.15
2022-11-08T12:33:57.791Z,2.03
2022-11-08T12:36:43.042Z,2.35
2022-11-08T12:39:23.339Z,2.90
2022-11-08T12:41:55.974Z,1.90
2022-11-08T12:44:45.143Z,2.08
2022-11-08T12:47:23.104Z,1.98
2022-11-08T12:50:17.166Z,1.83
2022-11-08T12:52:43.542Z,1.80
2022-11-08T12:57:41.642Z,1.70
2022-11-08T13:00:16.589Z,1.70
2022-11-08T13:02:46.197Z,2.35
2022-11-08T13:05:41.603Z,2.00
2022-11-08T13:08:25.603Z,2.00
2022-11-08T13:11:07.982Z,2.42
2022-11-08T13:13:48.867Z,2.88
2022-11-08T13:16:16.987Z,2.13
2022-11-08T13:18:58.641Z,2.40
2022-11-08T13:21:27.857Z,1.83
2022-11-08T13:24:43.037Z,1.90
2022-11-08T13:27:21.786Z,2.30
2022-11-08T13:29:48.255Z,2.47
2022-11-08T13:35:12.185Z,2.50
2022-11-08T13:37:51.600Z,2.10
2022-11-08T13:40:40.524Z,1.88
2022-11-08T13:43:30.349Z,2.33
2022-11-08T13:46:28.084Z,2.00
2022-11-08T13:48:57.447Z,3.83
2022-11-08T13:51:40.515Z,3.92
2022-11-08T13:54:22.398Z,1.88
2022-11-08T13:56:55.949Z,1.80
2022-11-08T13:59:31.835Z,1.98
2022-11-08T14:01:58.730Z,2.20
2022-11-08T14:04:25.197Z,1.90
2022-11-08T14:07:06.553Z,2.17
2022-11-08T14:09:52.584Z,1.88
2022-11-08T14:12:30.963Z,2.28
2022-11-08T14:14:57.372Z,1.88
2022-11-08T14:17:48.277Z,2.03
2022-11-08T14:20:31.625Z,1.80
2022-11-08T14:23:02.489Z,2.00
2022-11-08T14:25:31.861Z,1.80
2022-11-08T14:27:58.780Z,2.10
2022-11-08T14:30:25.722Z,1.70
2022-11-08T14:33:16.164Z,1.80
2022-11-08T14:35:43.007Z,1.95
2022-11-08T14:38:15.562Z,2.40
2022-11-08T14:40:52.153Z,1.80
2022-11-08T14:43:20.302Z,1.98
2022-11-08T14:45:47.528Z,1.80
2022-11-08T14:48:22.111Z,2.45
2022-11-08T14:50:48.801Z,3.00
2022-11-08T14:53:22.940Z,1.77
2022-11-08T14:55:56.674Z,1.80
2022-11-08T14:58:27.858Z,2.17
2022-11-08T15:00:54.424Z,1.95
2022-11-08T15:03:21.457Z,2.00
2022-11-08T15:05:55.490Z,2.00
2022-11-08T15:08:29.083Z,1.90
2022-11-08T15:11:03.282Z,3.25
2022-11-08T15:13:38.433Z,1.90
2022-11-08T15:16:06.701Z,2.00
2022-11-08T15:18:37.200Z,1.92
2022-11-08T15:21:22.559Z,1.92
2022-11-08T15:23:53.416Z,2.90
2022-11-08T15:26:25.859Z,4.00
2022-11-08T15:29:03.021Z,3.67
2022-11-08T15:31:35.151Z,6.95
2022-11-08T15:34:02.301Z,5.00
2022-11-08T15:36:35.098Z,3.70
2022-11-08T15:39:03.996Z,2.60
2022-11-08T15:41:39.962Z,2.40
2022-11-08T15:44:15.109Z,2.08
2022-11-08T15:46:41.936Z,2.15
2022-11-08T15:49:27.990Z,2.33
2022-11-08T15:51:56.447Z,3.10
2022-11-08T15:54:24.134Z,3.28
2022-11-08T15:56:52.517Z,3.88
2022-11-08T15:59:22.732Z,5.30
2022-11-08T16:01:58.755Z,2.38
2022-11-08T16:04:26.986Z,3.08
2022-11-08T16:06:53.603Z,2.40
2022-11-08T16:09:20.318Z,2.20
2022-11-08T16:11:47.498Z,2.40
2022-11-08T16:14:20.171Z,2.58
2022-11-08T16:16:47.383Z,2.88
2022-11-08T16:19:22.243Z,2.22
2022-11-08T16:21:49.185Z,2.22
2022-11-08T16:24:16.179Z,4.05
2022-11-08T16:26:44.372Z,3.65
2022-11-08T16:29:18.462Z,2.25
2022-11-08T16:31:45.571Z,2.20
2022-11-08T16:34:12.164Z,8.02
2022-11-08T16:39:06.895Z,2.92
2022-11-08T16:41:33.327Z,2.55
2022-11-08T16:44:00.304Z,6.05
2022-11-08T16:46:26.820Z,4.53
2022-11-08T16:51:23.333Z,3.90
2022-11-08T16:53:49.952Z,3.50
2022-11-08T16:56:16.552Z,3.33
2022-11-08T16:58:43.705Z,2.40
2022-11-08T17:01:16.167Z,2.80
2022-11-08T17:03:42.809Z,3.40
2022-11-08T17:08:39.152Z,3.92
2022-11-08T17:11:05.740Z,3.00
2022-11-08T17:13:36.144Z,2.58
2022-11-08T17:16:06.114Z,2.50
2022-11-08T17:18:32.559Z,3.20
2022-11-08T17:21:07.557Z,3.10
2022-11-08T17:23:45.577Z,2.80
2022-11-08T17:28:38.582Z,2.80
2022-11-08T17:33:38.790Z,4.18
2022-11-08T17:36:07.291Z,3.35
2022-11-08T17:38:38.119Z,2.78
2022-11-08T17:41:11.425Z,2.60
2022-11-08T17:43:37.984Z,2.38
2022-11-08T17:48:32.175Z,2.75
2022-11-08T17:50:58.684Z,3.05
2022-11-08T17:56:03.886Z,3.22
2022-11-08T17:58:33.496Z,3.03
2022-11-08T18:01:01.579Z,2.67
2022-11-08T18:03:28.432Z,2.60
2022-11-08T18:06:04.117Z,2.67
2022-11-08T18:08:32.309Z,3.83
2022-11-08T18:10:59.306Z,2.85
2022-11-08T18:13:27.284Z,2.97
2022-11-08T18:15:53.721Z,2.72
2022-11-08T18:18:20.946Z,5.35
2022-11-08T18:20:54.426Z,3.92
2022-11-08T18:23:22.027Z,3.17
2022-11-08T18:25:50.300Z,3.05
2022-11-08T18:28:17.571Z,3.90
2022-11-08T18:30:48.048Z,3.72
2022-11-08T18:33:14.822Z,4.40
2022-11-08T18:38:07.704Z,5.68
2022-11-08T18:40:34.253Z,4.53
2022-11-08T18:45:27.084Z,2.58
2022-11-08T18:47:53.601Z,3.13
2022-11-08T18:50:20.235Z,2.90
2022-11-08T18:55:15.961Z,3.10
2022-11-08T18:57:42.610Z,2.88
2022-11-08T19:00:10.079Z,4.55
2022-11-08T19:02:36.594Z,3.30
2022-11-08T19:07:29.776Z,4.00
2022-11-08T19:09:56.276Z,3.50
2022-11-08T19:14:49.237Z,3.53
2022-11-08T19:17:16.394Z,2.75
2022-11-08T19:19:44.206Z,2.90
2022-11-08T19:22:10.850Z,3.95
2022-11-08T19:24:37.322Z,3.35
2022-11-08T19:27:03.856Z,3.13
2022-11-08T19:31:56.737Z,3.00
2022-11-08T19:36:57.799Z,2.83
2022-11-08T19:39:24.604Z,2.95
2022-11-08T19:41:51.280Z,3.53
2022-11-08T19:44:17.978Z,3.00
2022-11-08T19:46:44.829Z,3.85
2022-11-08T19:49:11.456Z,2.70
2022-11-08T19:51:38.252Z,2.92
2022-11-08T19:54:08.014Z,2.88
2022-11-08T19:57:03.198Z,3.10
2022-11-08T19:59:22.277Z,3.08
2022-11-08T20:04:15.378Z,4.05
2022-11-08T20:09:09.441Z,2.95
2022-11-08T20:11:38.015Z,2.63
2022-11-08T20:14:06.532Z,2.63
2022-11-08T20:16:38.024Z,2.70
2022-11-08T20:19:10.576Z,2.88
2022-11-08T20:21:40.680Z,2.70
2022-11-08T20:24:07.456Z,2.63
2022-11-08T20:26:34.859Z,2.78
2022-11-08T20:29:01.349Z,2.60
2022-11-08T20:33:55.144Z,2.70
2022-11-08T20:38:49.857Z,2.47
2022-11-08T20:41:18.347Z,2.80
2022-11-08T20:43:46.844Z,3.40
2022-11-08T20:46:18.511Z,3.92
2022-11-08T20:48:50.695Z,3.60
2022-11-08T20:51:19.678Z,2.85
2022-11-08T20:53:46.503Z,2.92
2022-11-08T20:56:15.291Z,6.88
2022-11-08T20:58:43.215Z,5.93
2022-11-08T21:01:13.454Z,9.40
2022-11-08T21:03:40.837Z,17.15
2022-11-08T21:06:08.815Z,16.70
2022-11-08T21:11:24.498Z,6.72
2022-11-08T21:13:51.012Z,4.40
2022-11-08T21:16:42.708Z,3.85
2022-11-08T21:19:04.996Z,3.40
2022-11-08T21:21:33.002Z,3.20
2022-11-08T21:23:59.522Z,2.95
2022-11-08T21:26:25.987Z,2.60
2022-11-08T21:28:52.458Z,3.17
2022-11-08T21:31:19.153Z,3.50
2022-11-08T21:33:45.747Z,3.75
2022-11-08T21:38:40.100Z,3.45
2022-11-08T21:41:09.123Z,2.80
2022-11-08T21:43:37.777Z,2.95
2022-11-08T21:46:22.626Z,2.97
2022-11-08T21:48:57.216Z,3.17
2022-11-08T21:51:24.469Z,4.72
2022-11-08T21:53:55.229Z,4.85
2022-11-08T21:56:23.972Z,2.58
2022-11-08T21:58:50.553Z,2.58
2022-11-08T22:03:44.268Z,2.53
2022-11-08T22:08:37.316Z,2.47
2022-11-08T22:11:04.530Z,2.55
2022-11-08T22:13:31.043Z,2.10
2022-11-08T22:18:36.696Z,2.25
2022-11-08T22:21:28.854Z,2.70
2022-11-08T22:23:55.313Z,2.60
2022-11-08T22:26:21.693Z,2.45
2022-11-08T22:28:48.489Z,2.40
2022-11-08T22:31:14.978Z,2.85
2022-11-08T22:36:08.218Z,2.30
2022-11-08T22:38:34.859Z,3.08
2022-11-08T22:41:01.416Z,2.10
2022-11-08T22:45:54.415Z,2.50
2022-11-08T22:50:49.491Z,2.30
2022-11-08T22:53:16.385Z,2.08
2022-11-08T22:55:45.041Z,2.20
